sensor_id;sensor_type;location;lat;lon;timestamp;P1;durP1;ratioP1;P2;durP2;ratioP2
9208;SDS011;4639;48.862;9.188;2022-09-09T00:04:21;6.57;;;2.90;;
9208;SDS011;4639;48.862;9.188;2022-09-09T00:09:46;6.80;;;2.90;;
9208;SDS011;4639;48.862;9.188;2022-09-09T00:15:15;6.13;;;2.60;;
9208;SDS011;4639;48.862;9.188;2022-09-09T00:17:51;9.90;;;3.03;;
9208;SDS011;4639;48.862;9.188;2022-09-09T00:23:19;5.75;;;2.28;;
9208;SDS011;4639;48.862;9.188;2022-09-09T00:28:27;8.65;;;2.22;;
9208;SDS011;4639;48.862;9.188;2022-09-09T00:30:57;7.32;;;1.90;;
9208;SDS011;4639;48.862;9.188;2022-09-09T00:33:32;8.77;;;2.47;;
9208;SDS011;4639;48.862;9.188;2022-09-09T00:35:59;6.05;;;1.98;;
9208;SDS011;4639;48.862;9.188;2022-09-09T00:41:03;6.72;;;2.40;;
9208;SDS011;4639;48.862;9.188;2022-09-09T00:43:32;3.20;;;1.90;;
9208;SDS011;4639;48.862;9.188;2022-09-09T01:05:39;4.05;;;2.15;;
9208;SDS011;4639;48.862;9.188;2022-09-09T01:11:02;5.35;;;1.98;;
9208;SDS011;4639;48.862;9.188;2022-09-09T01:13:29;3.92;;;1.75;;
9208;SDS011;4639;48.862;9.188;2022-09-09T01:15:59;6.32;;;2.10;;
9208;SDS011;4639;48.862;9.188;2022-09-09T01:18:34;4.28;;;1.58;;
9208;SDS011;4639;48.862;9.188;2022-09-09T01:21:09;2.95;;;1.73;;
9208;SDS011;4639;48.862;9.188;2022-09-09T01:26:37;6.28;;;1.80;;
9208;SDS011;4639;48.862;9.188;2022-09-09T01:29:07;7.25;;;2.15;;
9208;SDS011;4639;48.862;9.188;2022-09-09T01:31:36;3.50;;;1.73;;
9208;SDS011;4639;48.862;9.188;2022-09-09T01:34:16;4.28;;;1.90;;
9208;SDS011;4639;48.862;9.188;2022-09-09T01:39:24;4.13;;;1.63;;
9208;SDS011;4639;48.862;9.188;2022-09-09T01:41:50;6.60;;;1.85;;
9208;SDS011;4639;48.862;9.188;2022-09-09T01:44:16;3.75;;;1.70;;
9208;SDS011;4639;48.862;9.188;2022-09-09T01:46:43;4.82;;;2.10;;
9208;SDS011;4639;48.862;9.188;2022-09-09T01:49:09;3.38;;;1.65;;
9208;SDS011;4639;48.862;9.188;2022-09-09T01:51:35;3.63;;;1.70;;
9208;SDS011;4639;48.862;9.188;2022-09-09T01:54:03;5.13;;;1.63;;
9208;SDS011;4639;48.862;9.188;2022-09-09T01:59:12;2.28;;;1.50;;
9208;SDS011;4639;48.862;9.188;2022-09-09T02:01:58;3.88;;;1.75;;
9208;SDS011;4639;48.862;9.188;2022-09-09T02:04:36;2.75;;;1.48;;
9208;SDS011;4639;48.862;9.188;2022-09-09T02:07:03;4.03;;;1.80;;
9208;SDS011;4639;48.862;9.188;2022-09-09T02:09:41;2.95;;;1.50;;
9208;SDS011;4639;48.862;9.188;2022-09-09T02:12:13;2.33;;;1.60;;
9208;SDS011;4639;48.862;9.188;2022-09-09T02:14:43;3.72;;;1.52;;
9208;SDS011;4639;48.862;9.188;2022-09-09T02:17:15;4.28;;;1.60;;
9208;SDS011;4639;48.862;9.188;2022-09-09T02:19:49;4.30;;;1.90;;
9208;SDS011;4639;48.862;9.188;2022-09-09T02:22:22;3.58;;;1.77;;
9208;SDS011;4639;48.862;9.188;2022-09-09T02:24:49;3.97;;;1.70;;
9208;SDS011;4639;48.862;9.188;2022-09-09T02:27:19;5.32;;;1.95;;
9208;SDS011;4639;48.862;9.188;2022-09-09T02:29:46;5.07;;;1.48;;
9208;SDS011;4639;48.862;9.188;2022-09-09T02:32:15;2.50;;;1.52;;
9208;SDS011;4639;48.862;9.188;2022-09-09T02:34:45;4.20;;;1.30;;
9208;SDS011;4639;48.862;9.188;2022-09-09T02:37:15;3.65;;;1.80;;
9208;SDS011;4639;48.862;9.188;2022-09-09T02:39:43;2.67;;;1.23;;
9208;SDS011;4639;48.862;9.188;2022-09-09T02:42:09;3.10;;;1.20;;
9208;SDS011;4639;48.862;9.188;2022-09-09T02:44:35;2.95;;;1.35;;
9208;SDS011;4639;48.862;9.188;2022-09-09T02:49:35;2.58;;;1.13;;
9208;SDS011;4639;48.862;9.188;2022-09-09T02:52:15;4.50;;;1.27;;
9208;SDS011;4639;48.862;9.188;2022-09-09T02:54:45;2.38;;;1.13;;
9208;SDS011;4639;48.862;9.188;2022-09-09T02:57:17;4.25;;;1.65;;
9208;SDS011;4639;48.862;9.188;2022-09-09T02:59:47;2.58;;;1.25;;
9208;SDS011;4639;48.862;9.188;2022-09-09T03:02:14;6.43;;;1.65;;
9208;SDS011;4639;48.862;9.188;2022-09-09T03:04:40;4.38;;;1.50;;
9208;SDS011;4639;48.862;9.188;2022-09-09T03:07:09;2.15;;;1.20;;
9208;SDS011;4639;48.862;9.188;2022-09-09T03:09:35;2.65;;;1.40;;
9208;SDS011;4639;48.862;9.188;2022-09-09T03:12:01;4.22;;;1.60;;
9208;SDS011;4639;48.862;9.188;2022-09-09T03:14:27;2.88;;;1.48;;
9208;SDS011;4639;48.862;9.188;2022-09-09T03:16:52;2.83;;;1.40;;
9208;SDS011;4639;48.862;9.188;2022-09-09T03:19:19;2.33;;;1.48;;
9208;SDS011;4639;48.862;9.188;2022-09-09T03:21:46;6.30;;;1.83;;
9208;SDS011;4639;48.862;9.188;2022-09-09T03:24:12;7.32;;;1.80;;
9208;SDS011;4639;48.862;9.188;2022-09-09T03:26:39;4.53;;;2.13;;
9208;SDS011;4639;48.862;9.188;2022-09-09T03:29:06;6.72;;;2.30;;
9208;SDS011;4639;48.862;9.188;2022-09-09T03:31:35;5.05;;;2.20;;
9208;SDS011;4639;48.862;9.188;2022-09-09T03:34:01;6.22;;;2.55;;
9208;SDS011;4639;48.862;9.188;2022-09-09T03:36:27;4.60;;;1.80;;
9208;SDS011;4639;48.862;9.188;2022-09-09T03:38:53;5.38;;;2.70;;
9208;SDS011;4639;48.862;9.188;2022-09-09T03:41:19;4.07;;;2.38;;
9208;SDS011;4639;48.862;9.188;2022-09-09T03:43:52;5.22;;;2.17;;
9208;SDS011;4639;48.862;9.188;2022-09-09T03:46:18;5.03;;;2.28;;
9208;SDS011;4639;48.862;9.188;2022-09-09T03:48:48;5.20;;;2.10;;
9208;SDS011;4639;48.862;9.188;2022-09-09T03:51:14;4.20;;;1.92;;
9208;SDS011;4639;48.862;9.188;2022-09-09T03:53:40;5.57;;;2.00;;
9208;SDS011;4639;48.862;9.188;2022-09-09T03:56:06;5.68;;;2.15;;
9208;SDS011;4639;48.862;9.188;2022-09-09T03:58:32;6.68;;;2.22;;
9208;SDS011;4639;48.862;9.188;2022-09-09T04:01:00;7.63;;;2.10;;
9208;SDS011;4639;48.862;9.188;2022-09-09T04:03:30;4.07;;;2.42;;
9208;SDS011;4639;48.862;9.188;2022-09-09T04:05:57;3.20;;;1.98;;
9208;SDS011;4639;48.862;9.188;2022-09-09T04:08:24;4.95;;;2.08;;
9208;SDS011;4639;48.862;9.188;2022-09-09T04:10:53;6.32;;;1.95;;
9208;SDS011;4639;48.862;9.188;2022-09-09T04:13:23;3.42;;;2.08;;
9208;SDS011;4639;48.862;9.188;2022-09-09T04:15:53;6.10;;;2.03;;
9208;SDS011;4639;48.862;9.188;2022-09-09T04:18:21;5.97;;;2.33;;
9208;SDS011;4639;48.862;9.188;2022-09-09T04:20:50;4.93;;;2.30;;
9208;SDS011;4639;48.862;9.188;2022-09-09T04:23:16;5.43;;;2.40;;
9208;SDS011;4639;48.862;9.188;2022-09-09T04:25:47;4.75;;;2.15;;
9208;SDS011;4639;48.862;9.188;2022-09-09T04:28:14;5.70;;;2.53;;
9208;SDS011;4639;48.862;9.188;2022-09-09T04:30:41;6.57;;;2.72;;
9208;SDS011;4639;48.862;9.188;2022-09-09T04:33:07;7.18;;;2.50;;
9208;SDS011;4639;48.862;9.188;2022-09-09T04:35:34;4.20;;;2.38;;
9208;SDS011;4639;48.862;9.188;2022-09-09T04:38:00;5.43;;;2.38;;
9208;SDS011;4639;48.862;9.188;2022-09-09T04:40:27;6.80;;;2.20;;
9208;SDS011;4639;48.862;9.188;2022-09-09T04:42:54;5.18;;;2.17;;
9208;SDS011;4639;48.862;9.188;2022-09-09T04:45:20;6.30;;;2.10;;
9208;SDS011;4639;48.862;9.188;2022-09-09T04:47:46;5.65;;;2.13;;
9208;SDS011;4639;48.862;9.188;2022-09-09T04:50:11;3.65;;;2.20;;
9208;SDS011;4639;48.862;9.188;2022-09-09T04:52:37;6.72;;;2.33;;
9208;SDS011;4639;48.862;9.188;2022-09-09T04:55:03;8.40;;;2.53;;
9208;SDS011;4639;48.862;9.188;2022-09-09T04:57:29;4.93;;;1.92;;
9208;SDS011;4639;48.862;9.188;2022-09-09T04:59:57;4.80;;;2.08;;
9208;SDS011;4639;48.862;9.188;2022-09-09T05:02:23;5.63;;;2.10;;
9208;SDS011;4639;48.862;9.188;2022-09-09T05:04:48;3.30;;;1.85;;
9208;SDS011;4639;48.862;9.188;2022-09-09T05:07:14;3.85;;;2.08;;
9208;SDS011;4639;48.862;9.188;2022-09-09T05:09:40;5.53;;;2.13;;
9208;SDS011;4639;48.862;9.188;2022-09-09T05:12:05;10.23;;;2.20;;
9208;SDS011;4639;48.862;9.188;2022-09-09T05:14:32;4.00;;;2.10;;
9208;SDS011;4639;48.862;9.188;2022-09-09T05:16:57;3.80;;;1.98;;
9208;SDS011;4639;48.862;9.188;2022-09-09T05:19:23;7.43;;;1.80;;
9208;SDS011;4639;48.862;9.188;2022-09-09T05:21:48;5.03;;;2.00;;
9208;SDS011;4639;48.862;9.188;2022-09-09T05:24:15;7.20;;;2.13;;
9208;SDS011;4639;48.862;9.188;2022-09-09T05:26:41;6.03;;;2.30;;
9208;SDS011;4639;48.862;9.188;2022-09-09T05:29:08;3.50;;;1.67;;
9208;SDS011;4639;48.862;9.188;2022-09-09T05:31:34;4.95;;;2.05;;
9208;SDS011;4639;48.862;9.188;2022-09-09T05:33:59;6.93;;;1.88;;
9208;SDS011;4639;48.862;9.188;2022-09-09T05:36:25;5.05;;;1.88;;
9208;SDS011;4639;48.862;9.188;2022-09-09T05:38:50;6.38;;;2.25;;
9208;SDS011;4639;48.862;9.188;2022-09-09T05:41:18;6.55;;;2.00;;
9208;SDS011;4639;48.862;9.188;2022-09-09T05:43:45;7.88;;;2.00;;
9208;SDS011;4639;48.862;9.188;2022-09-09T05:46:17;5.03;;;2.03;;
9208;SDS011;4639;48.862;9.188;2022-09-09T05:48:44;3.58;;;1.70;;
9208;SDS011;4639;48.862;9.188;2022-09-09T05:51:12;3.33;;;1.90;;
9208;SDS011;4639;48.862;9.188;2022-09-09T05:53:43;2.13;;;1.52;;
9208;SDS011;4639;48.862;9.188;2022-09-09T05:56:11;4.20;;;2.00;;
9208;SDS011;4639;48.862;9.188;2022-09-09T05:58:44;3.40;;;1.65;;
9208;SDS011;4639;48.862;9.188;2022-09-09T06:03:51;7.22;;;2.13;;
9208;SDS011;4639;48.862;9.188;2022-09-09T06:06:18;4.22;;;1.70;;
9208;SDS011;4639;48.862;9.188;2022-09-09T06:08:52;3.63;;;1.73;;
9208;SDS011;4639;48.862;9.188;2022-09-09T06:11:25;7.85;;;2.05;;
9208;SDS011;4639;48.862;9.188;2022-09-09T06:13:56;5.38;;;1.88;;
9208;SDS011;4639;48.862;9.188;2022-09-09T06:16:23;3.47;;;1.75;;
9208;SDS011;4639;48.862;9.188;2022-09-09T06:18:50;3.47;;;1.65;;
9208;SDS011;4639;48.862;9.188;2022-09-09T06:21:20;7.13;;;1.80;;
9208;SDS011;4639;48.862;9.188;2022-09-09T06:23:47;2.97;;;1.58;;
9208;SDS011;4639;48.862;9.188;2022-09-09T06:26:14;5.28;;;2.53;;
9208;SDS011;4639;48.862;9.188;2022-09-09T06:28:43;2.63;;;1.80;;
9208;SDS011;4639;48.862;9.188;2022-09-09T06:31:09;4.03;;;1.80;;
9208;SDS011;4639;48.862;9.188;2022-09-09T06:33:37;5.43;;;2.00;;
9208;SDS011;4639;48.862;9.188;2022-09-09T06:36:06;4.90;;;1.88;;
9208;SDS011;4639;48.862;9.188;2022-09-09T06:38:35;6.20;;;1.83;;
9208;SDS011;4639;48.862;9.188;2022-09-09T06:41:01;5.85;;;2.00;;
9208;SDS011;4639;48.862;9.188;2022-09-09T06:43:27;2.97;;;1.73;;
9208;SDS011;4639;48.862;9.188;2022-09-09T06:45:56;4.10;;;1.63;;
9208;SDS011;4639;48.862;9.188;2022-09-09T06:48:24;3.63;;;1.80;;
9208;SDS011;4639;48.862;9.188;2022-09-09T06:51:35;8.80;;;2.05;;
9208;SDS011;4639;48.862;9.188;2022-09-09T06:53:43;5.78;;;1.70;;
9208;SDS011;4639;48.862;9.188;2022-09-09T06:58:39;5.60;;;1.60;;
9208;SDS011;4639;48.862;9.188;2022-09-09T07:01:12;4.90;;;1.70;;
9208;SDS011;4639;48.862;9.188;2022-09-09T07:03:40;6.60;;;1.80;;
9208;SDS011;4639;48.862;9.188;2022-09-09T07:06:13;7.25;;;1.83;;
9208;SDS011;4639;48.862;9.188;2022-09-09T07:08:41;8.73;;;1.70;;
9208;SDS011;4639;48.862;9.188;2022-09-09T07:11:08;6.35;;;2.00;;
9208;SDS011;4639;48.862;9.188;2022-09-09T07:13:34;5.63;;;1.50;;
9208;SDS011;4639;48.862;9.188;2022-09-09T07:16:06;5.90;;;1.48;;
9208;SDS011;4639;48.862;9.188;2022-09-09T07:18:34;6.57;;;1.67;;
9208;SDS011;4639;48.862;9.188;2022-09-09T07:21:00;3.85;;;1.30;;
9208;SDS011;4639;48.862;9.188;2022-09-09T07:23:27;8.27;;;1.63;;
9208;SDS011;4639;48.862;9.188;2022-09-09T07:25:53;3.53;;;1.30;;
9208;SDS011;4639;48.862;9.188;2022-09-09T07:28:19;2.90;;;1.60;;
9208;SDS011;4639;48.862;9.188;2022-09-09T07:31:01;5.68;;;1.45;;
9208;SDS011;4639;48.862;9.188;2022-09-09T07:33:28;2.33;;;1.27;;
9208;SDS011;4639;48.862;9.188;2022-09-09T07:38:31;2.20;;;1.10;;
9208;SDS011;4639;48.862;9.188;2022-09-09T07:41:03;3.42;;;1.30;;
9208;SDS011;4639;48.862;9.188;2022-09-09T07:43:30;3.78;;;1.52;;
9208;SDS011;4639;48.862;9.188;2022-09-09T07:45:59;3.15;;;1.48;;
9208;SDS011;4639;48.862;9.188;2022-09-09T07:48:28;2.67;;;1.42;;
9208;SDS011;4639;48.862;9.188;2022-09-09T07:51:02;3.13;;;1.40;;
9208;SDS011;4639;48.862;9.188;2022-09-09T07:53:42;3.75;;;1.40;;
9208;SDS011;4639;48.862;9.188;2022-09-09T07:56:10;3.67;;;1.45;;
9208;SDS011;4639;48.862;9.188;2022-09-09T07:58:38;5.93;;;1.50;;
9208;SDS011;4639;48.862;9.188;2022-09-09T08:01:15;4.25;;;1.40;;
9208;SDS011;4639;48.862;9.188;2022-09-09T08:03:47;5.20;;;1.75;;
9208;SDS011;4639;48.862;9.188;2022-09-09T08:06:17;6.05;;;1.60;;
9208;SDS011;4639;48.862;9.188;2022-09-09T08:08:43;6.32;;;1.60;;
9208;SDS011;4639;48.862;9.188;2022-09-09T08:11:11;15.35;;;1.65;;
9208;SDS011;4639;48.862;9.188;2022-09-09T08:13:40;2.58;;;1.17;;
9208;SDS011;4639;48.862;9.188;2022-09-09T08:16:13;2.20;;;1.08;;
9208;SDS011;4639;48.862;9.188;2022-09-09T08:18:41;4.93;;;1.50;;
9208;SDS011;4639;48.862;9.188;2022-09-09T08:21:08;3.97;;;1.30;;
9208;SDS011;4639;48.862;9.188;2022-09-09T08:23:39;3.17;;;1.38;;
9208;SDS011;4639;48.862;9.188;2022-09-09T08:26:27;3.28;;;1.40;;
9208;SDS011;4639;48.862;9.188;2022-09-09T08:28:54;5.97;;;1.50;;
9208;SDS011;4639;48.862;9.188;2022-09-09T08:31:26;3.55;;;1.73;;
9208;SDS011;4639;48.862;9.188;2022-09-09T08:33:53;2.65;;;1.48;;
9208;SDS011;4639;48.862;9.188;2022-09-09T08:36:20;3.70;;;1.48;;
9208;SDS011;4639;48.862;9.188;2022-09-09T08:38:48;3.72;;;1.27;;
9208;SDS011;4639;48.862;9.188;2022-09-09T08:43:50;9.77;;;1.75;;
9208;SDS011;4639;48.862;9.188;2022-09-09T08:46:32;5.15;;;1.63;;
9208;SDS011;4639;48.862;9.188;2022-09-09T08:49:31;3.47;;;1.20;;
9208;SDS011;4639;48.862;9.188;2022-09-09T08:52:22;3.17;;;1.30;;
9208;SDS011;4639;48.862;9.188;2022-09-09T08:54:52;2.63;;;1.15;;
9208;SDS011;4639;48.862;9.188;2022-09-09T08:57:26;3.88;;;1.20;;
9208;SDS011;4639;48.862;9.188;2022-09-09T08:59:54;4.95;;;1.23;;
9208;SDS011;4639;48.862;9.188;2022-09-09T09:15:50;3.38;;;1.52;;
9208;SDS011;4639;48.862;9.188;2022-09-09T09:18:21;2.50;;;0.98;;
9208;SDS011;4639;48.862;9.188;2022-09-09T09:20:50;3.78;;;1.27;;
9208;SDS011;4639;48.862;9.188;2022-09-09T09:23:38;2.25;;;1.02;;
9208;SDS011;4639;48.862;9.188;2022-09-09T09:26:10;2.58;;;1.10;;
9208;SDS011;4639;48.862;9.188;2022-09-09T09:28:42;4.90;;;1.33;;
9208;SDS011;4639;48.862;9.188;2022-09-09T09:31:11;4.47;;;1.35;;
9208;SDS011;4639;48.862;9.188;2022-09-09T09:33:48;3.35;;;1.40;;
9208;SDS011;4639;48.862;9.188;2022-09-09T09:36:14;4.25;;;1.50;;
9208;SDS011;4639;48.862;9.188;2022-09-09T09:38:51;7.70;;;1.33;;
9208;SDS011;4639;48.862;9.188;2022-09-09T09:41:31;8.52;;;1.42;;
9208;SDS011;4639;48.862;9.188;2022-09-09T09:44:18;3.33;;;1.33;;
9208;SDS011;4639;48.862;9.188;2022-09-09T09:46:51;2.80;;;1.08;;
9208;SDS011;4639;48.862;9.188;2022-09-09T09:49:17;6.65;;;1.45;;
9208;SDS011;4639;48.862;9.188;2022-09-09T09:51:43;4.88;;;1.30;;
9208;SDS011;4639;48.862;9.188;2022-09-09T09:56:38;2.53;;;1.08;;
9208;SDS011;4639;48.862;9.188;2022-09-09T09:59:05;3.03;;;1.10;;
9208;SDS011;4639;48.862;9.188;2022-09-09T10:01:43;3.15;;;1.08;;
9208;SDS011;4639;48.862;9.188;2022-09-09T10:04:16;2.17;;;1.00;;
9208;SDS011;4639;48.862;9.188;2022-09-09T10:06:45;2.20;;;1.00;;
9208;SDS011;4639;48.862;9.188;2022-09-09T10:14:50;2.85;;;1.10;;
9208;SDS011;4639;48.862;9.188;2022-09-09T10:17:33;3.30;;;1.05;;
9208;SDS011;4639;48.862;9.188;2022-09-09T10:22:35;1.33;;;0.77;;
9208;SDS011;4639;48.862;9.188;2022-09-09T10:25:21;2.83;;;1.00;;
9208;SDS011;4639;48.862;9.188;2022-09-09T10:28:56;4.15;;;1.10;;
9208;SDS011;4639;48.862;9.188;2022-09-09T10:33:51;2.03;;;1.05;;
9208;SDS011;4639;48.862;9.188;2022-09-09T10:36:23;2.92;;;1.33;;
9208;SDS011;4639;48.862;9.188;2022-09-09T10:52:21;3.08;;;1.42;;
9208;SDS011;4639;48.862;9.188;2022-09-09T10:57:41;3.45;;;1.17;;
9208;SDS011;4639;48.862;9.188;2022-09-09T11:02:41;2.67;;;1.35;;
9208;SDS011;4639;48.862;9.188;2022-09-09T11:05:18;3.13;;;1.58;;
9208;SDS011;4639;48.862;9.188;2022-09-09T11:13:14;4.05;;;1.17;;
9208;SDS011;4639;48.862;9.188;2022-09-09T11:15:45;3.45;;;1.30;;
9208;SDS011;4639;48.862;9.188;2022-09-09T11:18:20;9.93;;;1.25;;
9208;SDS011;4639;48.862;9.188;2022-09-09T11:20:48;9.27;;;1.65;;
9208;SDS011;4639;48.862;9.188;2022-09-09T11:23:28;7.93;;;2.20;;
9208;SDS011;4639;48.862;9.188;2022-09-09T11:26:07;4.10;;;1.40;;
9208;SDS011;4639;48.862;9.188;2022-09-09T11:31:37;6.15;;;1.65;;
9208;SDS011;4639;48.862;9.188;2022-09-09T11:40:45;4.57;;;1.40;;
9208;SDS011;4639;48.862;9.188;2022-09-09T11:45:43;2.83;;;0.95;;
9208;SDS011;4639;48.862;9.188;2022-09-09T11:51:31;5.88;;;1.30;;
9208;SDS011;4639;48.862;9.188;2022-09-09T11:56:54;6.28;;;1.10;;
9208;SDS011;4639;48.862;9.188;2022-09-09T11:59:20;1.77;;;1.42;;
9208;SDS011;4639;48.862;9.188;2022-09-09T12:04:36;1.38;;;0.88;;
9208;SDS011;4639;48.862;9.188;2022-09-09T12:07:26;2.45;;;0.95;;
9208;SDS011;4639;48.862;9.188;2022-09-09T12:12:48;1.67;;;0.75;;
9208;SDS011;4639;48.862;9.188;2022-09-09T12:15:18;1.35;;;0.55;;
9208;SDS011;4639;48.862;9.188;2022-09-09T12:17:48;2.47;;;0.70;;
9208;SDS011;4639;48.862;9.188;2022-09-09T12:25:57;0.95;;;0.60;;
9208;SDS011;4639;48.862;9.188;2022-09-09T12:31:42;1.08;;;0.63;;
9208;SDS011;4639;48.862;9.188;2022-09-09T12:37:24;1.30;;;0.98;;
9208;SDS011;4639;48.862;9.188;2022-09-09T12:40:03;1.65;;;0.90;;
9208;SDS011;4639;48.862;9.188;2022-09-09T12:42:49;2.13;;;0.93;;
9208;SDS011;4639;48.862;9.188;2022-09-09T12:45:18;2.75;;;1.10;;
9208;SDS011;4639;48.862;9.188;2022-09-09T12:50:23;1.23;;;0.63;;
9208;SDS011;4639;48.862;9.188;2022-09-09T12:52:56;1.95;;;0.60;;
9208;SDS011;4639;48.862;9.188;2022-09-09T12:55:35;2.22;;;0.80;;
9208;SDS011;4639;48.862;9.188;2022-09-09T12:58:03;2.10;;;1.05;;
9208;SDS011;4639;48.862;9.188;2022-09-09T13:00:31;4.45;;;1.10;;
9208;SDS011;4639;48.862;9.188;2022-09-09T13:02:59;1.45;;;0.68;;
9208;SDS011;4639;48.862;9.188;2022-09-09T13:05:28;1.27;;;0.73;;
9208;SDS011;4639;48.862;9.188;2022-09-09T13:08:10;1.33;;;0.55;;
9208;SDS011;4639;48.862;9.188;2022-09-09T13:10:39;1.77;;;0.93;;
9208;SDS011;4639;48.862;9.188;2022-09-09T13:13:17;3.15;;;0.95;;
9208;SDS011;4639;48.862;9.188;2022-09-09T13:15:49;2.33;;;0.90;;
9208;SDS011;4639;48.862;9.188;2022-09-09T13:18:23;4.05;;;0.90;;
9208;SDS011;4639;48.862;9.188;2022-09-09T13:20:53;1.92;;;0.90;;
9208;SDS011;4639;48.862;9.188;2022-09-09T13:23:22;5.03;;;1.10;;
9208;SDS011;4639;48.862;9.188;2022-09-09T13:25:59;2.25;;;0.90;;
9208;SDS011;4639;48.862;9.188;2022-09-09T13:28:31;4.50;;;1.00;;
9208;SDS011;4639;48.862;9.188;2022-09-09T13:31:18;2.35;;;0.77;;
9208;SDS011;4639;48.862;9.188;2022-09-09T13:33:46;2.42;;;1.10;;
9208;SDS011;4639;48.862;9.188;2022-09-09T13:36:12;0.95;;;0.65;;
9208;SDS011;4639;48.862;9.188;2022-09-09T13:41:20;2.63;;;0.85;;
9208;SDS011;4639;48.862;9.188;2022-09-09T13:43:48;1.35;;;0.93;;
9208;SDS011;4639;48.862;9.188;2022-09-09T13:48:55;3.38;;;1.00;;
9208;SDS011;4639;48.862;9.188;2022-09-09T13:54:02;2.38;;;1.25;;
9208;SDS011;4639;48.862;9.188;2022-09-09T13:56:32;2.30;;;1.00;;
9208;SDS011;4639;48.862;9.188;2022-09-09T13:58:59;2.72;;;1.15;;
9208;SDS011;4639;48.862;9.188;2022-09-09T14:01:25;3.72;;;0.90;;
9208;SDS011;4639;48.862;9.188;2022-09-09T14:03:52;4.47;;;0.88;;
9208;SDS011;4639;48.862;9.188;2022-09-09T14:06:18;0.98;;;0.70;;
9208;SDS011;4639;48.862;9.188;2022-09-09T14:08:44;2.83;;;1.00;;
9208;SDS011;4639;48.862;9.188;2022-09-09T14:11:11;2.58;;;1.15;;
9208;SDS011;4639;48.862;9.188;2022-09-09T14:13:37;2.72;;;0.90;;
9208;SDS011;4639;48.862;9.188;2022-09-09T14:16:04;2.80;;;0.98;;
9208;SDS011;4639;48.862;9.188;2022-09-09T14:18:29;3.92;;;1.10;;
9208;SDS011;4639;48.862;9.188;2022-09-09T14:20:55;1.67;;;0.75;;
9208;SDS011;4639;48.862;9.188;2022-09-09T14:23:22;3.22;;;0.98;;
9208;SDS011;4639;48.862;9.188;2022-09-09T14:25:49;2.45;;;1.10;;
9208;SDS011;4639;48.862;9.188;2022-09-09T14:28:16;1.60;;;0.77;;
9208;SDS011;4639;48.862;9.188;2022-09-09T14:30:42;2.97;;;0.80;;
9208;SDS011;4639;48.862;9.188;2022-09-09T14:33:12;2.38;;;0.88;;
9208;SDS011;4639;48.862;9.188;2022-09-09T14:35:39;2.25;;;1.02;;
9208;SDS011;4639;48.862;9.188;2022-09-09T14:38:06;1.40;;;0.88;;
9208;SDS011;4639;48.862;9.188;2022-09-09T14:40:33;1.27;;;0.80;;
9208;SDS011;4639;48.862;9.188;2022-09-09T14:43:00;2.65;;;0.90;;
9208;SDS011;4639;48.862;9.188;2022-09-09T14:45:26;2.35;;;0.60;;
9208;SDS011;4639;48.862;9.188;2022-09-09T14:47:52;1.77;;;0.68;;
9208;SDS011;4639;48.862;9.188;2022-09-09T14:50:18;1.85;;;0.90;;
9208;SDS011;4639;48.862;9.188;2022-09-09T14:52:45;1.55;;;0.80;;
9208;SDS011;4639;48.862;9.188;2022-09-09T14:55:10;2.80;;;1.13;;
9208;SDS011;4639;48.862;9.188;2022-09-09T14:57:36;6.72;;;1.25;;
9208;SDS011;4639;48.862;9.188;2022-09-09T15:00:03;2.05;;;1.02;;
9208;SDS011;4639;48.862;9.188;2022-09-09T15:02:30;1.70;;;0.88;;
9208;SDS011;4639;48.862;9.188;2022-09-09T15:04:56;1.55;;;0.85;;
9208;SDS011;4639;48.862;9.188;2022-09-09T15:07:24;2.38;;;0.80;;
9208;SDS011;4639;48.862;9.188;2022-09-09T15:09:51;1.52;;;0.90;;
9208;SDS011;4639;48.862;9.188;2022-09-09T15:12:17;1.40;;;0.77;;
9208;SDS011;4639;48.862;9.188;2022-09-09T15:14:46;2.70;;;0.98;;
9208;SDS011;4639;48.862;9.188;2022-09-09T15:17:12;1.73;;;0.73;;
9208;SDS011;4639;48.862;9.188;2022-09-09T15:19:38;1.40;;;0.95;;
9208;SDS011;4639;48.862;9.188;2022-09-09T15:22:04;3.28;;;0.90;;
9208;SDS011;4639;48.862;9.188;2022-09-09T15:24:32;4.22;;;1.13;;
9208;SDS011;4639;48.862;9.188;2022-09-09T15:26:59;1.98;;;0.90;;
9208;SDS011;4639;48.862;9.188;2022-09-09T15:29:25;1.77;;;0.90;;
9208;SDS011;4639;48.862;9.188;2022-09-09T15:31:50;1.38;;;0.70;;
9208;SDS011;4639;48.862;9.188;2022-09-09T15:34:18;1.77;;;0.93;;
9208;SDS011;4639;48.862;9.188;2022-09-09T15:36:44;2.05;;;0.90;;
9208;SDS011;4639;48.862;9.188;2022-09-09T15:39:14;2.10;;;1.02;;
9208;SDS011;4639;48.862;9.188;2022-09-09T15:41:41;0.85;;;0.57;;
9208;SDS011;4639;48.862;9.188;2022-09-09T15:44:08;2.00;;;1.00;;
9208;SDS011;4639;48.862;9.188;2022-09-09T15:46:41;1.15;;;0.60;;
9208;SDS011;4639;48.862;9.188;2022-09-09T15:49:24;2.42;;;0.80;;
9208;SDS011;4639;48.862;9.188;2022-09-09T15:51:54;2.05;;;0.90;;
9208;SDS011;4639;48.862;9.188;2022-09-09T15:54:23;0.70;;;0.55;;
9208;SDS011;4639;48.862;9.188;2022-09-09T15:56:53;3.67;;;1.00;;
9208;SDS011;4639;48.862;9.188;2022-09-09T15:59:24;2.83;;;1.02;;
9208;SDS011;4639;48.862;9.188;2022-09-09T16:01:52;4.30;;;1.13;;
9208;SDS011;4639;48.862;9.188;2022-09-09T16:04:19;1.85;;;0.88;;
9208;SDS011;4639;48.862;9.188;2022-09-09T16:07:07;3.40;;;1.17;;
9208;SDS011;4639;48.862;9.188;2022-09-09T16:09:33;4.03;;;1.40;;
9208;SDS011;4639;48.862;9.188;2022-09-09T16:12:00;1.63;;;0.75;;
9208;SDS011;4639;48.862;9.188;2022-09-09T16:14:27;0.75;;;0.60;;
9208;SDS011;4639;48.862;9.188;2022-09-09T16:16:53;2.28;;;0.90;;
9208;SDS011;4639;48.862;9.188;2022-09-09T16:19:19;3.85;;;1.35;;
9208;SDS011;4639;48.862;9.188;2022-09-09T16:21:45;2.25;;;0.95;;
9208;SDS011;4639;48.862;9.188;2022-09-09T16:24:13;1.45;;;0.80;;
9208;SDS011;4639;48.862;9.188;2022-09-09T16:26:45;3.58;;;0.70;;
9208;SDS011;4639;48.862;9.188;2022-09-09T16:29:13;2.42;;;0.70;;
9208;SDS011;4639;48.862;9.188;2022-09-09T16:31:41;7.10;;;0.95;;
9208;SDS011;4639;48.862;9.188;2022-09-09T16:34:08;1.42;;;0.60;;
9208;SDS011;4639;48.862;9.188;2022-09-09T16:36:35;17.90;;;1.15;;
9208;SDS011;4639;48.862;9.188;2022-09-09T16:39:03;3.83;;;0.88;;
9208;SDS011;4639;48.862;9.188;2022-09-09T16:41:30;2.85;;;0.50;;
9208;SDS011;4639;48.862;9.188;2022-09-09T16:44:00;1.33;;;0.70;;
9208;SDS011;4639;48.862;9.188;2022-09-09T16:46:29;1.90;;;1.00;;
9208;SDS011;4639;48.862;9.188;2022-09-09T16:48:56;2.22;;;0.90;;
9208;SDS011;4639;48.862;9.188;2022-09-09T16:51:35;4.05;;;1.10;;
9208;SDS011;4639;48.862;9.188;2022-09-09T16:54:04;2.50;;;0.98;;
9208;SDS011;4639;48.862;9.188;2022-09-09T16:56:34;2.13;;;1.00;;
9208;SDS011;4639;48.862;9.188;2022-09-09T16:59:04;1.92;;;1.02;;
9208;SDS011;4639;48.862;9.188;2022-09-09T17:01:32;2.08;;;1.00;;
9208;SDS011;4639;48.862;9.188;2022-09-09T17:04:02;3.55;;;1.10;;
9208;SDS011;4639;48.862;9.188;2022-09-09T17:06:30;1.52;;;0.80;;
9208;SDS011;4639;48.862;9.188;2022-09-09T17:08:58;3.17;;;0.98;;
9208;SDS011;4639;48.862;9.188;2022-09-09T17:11:26;3.28;;;1.27;;
9208;SDS011;4639;48.862;9.188;2022-09-09T17:13:53;1.33;;;1.02;;
9208;SDS011;4639;48.862;9.188;2022-09-09T17:16:20;1.33;;;0.98;;
9208;SDS011;4639;48.862;9.188;2022-09-09T17:18:47;1.95;;;0.73;;
9208;SDS011;4639;48.862;9.188;2022-09-09T17:21:14;2.03;;;1.00;;
9208;SDS011;4639;48.862;9.188;2022-09-09T17:23:41;0.98;;;0.70;;
9208;SDS011;4639;48.862;9.188;2022-09-09T17:26:08;0.68;;;0.68;;
9208;SDS011;4639;48.862;9.188;2022-09-09T17:28:37;1.17;;;0.68;;
9208;SDS011;4639;48.862;9.188;2022-09-09T17:31:04;0.80;;;0.70;;
9208;SDS011;4639;48.862;9.188;2022-09-09T17:33:35;0.75;;;0.60;;
9208;SDS011;4639;48.862;9.188;2022-09-09T17:36:07;1.50;;;0.80;;
9208;SDS011;4639;48.862;9.188;2022-09-09T17:38:39;1.33;;;0.73;;
9208;SDS011;4639;48.862;9.188;2022-09-09T17:41:09;1.10;;;0.90;;
9208;SDS011;4639;48.862;9.188;2022-09-09T17:43:46;0.77;;;0.75;;
9208;SDS011;4639;48.862;9.188;2022-09-09T17:48:46;1.83;;;0.85;;
9208;SDS011;4639;48.862;9.188;2022-09-09T17:51:14;2.50;;;1.13;;
9208;SDS011;4639;48.862;9.188;2022-09-09T17:53:44;2.97;;;1.10;;
9208;SDS011;4639;48.862;9.188;2022-09-09T17:56:13;1.20;;;0.70;;
9208;SDS011;4639;48.862;9.188;2022-09-09T17:58:40;1.40;;;0.90;;
9208;SDS011;4639;48.862;9.188;2022-09-09T18:01:07;2.22;;;0.90;;
9208;SDS011;4639;48.862;9.188;2022-09-09T18:03:36;3.30;;;0.88;;
9208;SDS011;4639;48.862;9.188;2022-09-09T18:06:15;2.28;;;1.08;;
9208;SDS011;4639;48.862;9.188;2022-09-09T18:08:52;2.05;;;0.80;;
9208;SDS011;4639;48.862;9.188;2022-09-09T18:11:41;1.75;;;1.00;;